Latest Weather Observations for Cape Ferguson

IDQ60801

Issued at 9:05 pm EST Saturday 23 August 2014 (issued every 30 minutes, with the page automatically refreshed every 10 minutes)

About weather observations | Map of weather stations | Latest weather observations for QLD | Other Formats
Station Details ID: 032182 Name: CAPE FERGUSON NTC AWS Lat: -19.28 Lon: 147.06 Height: 0.0 m
Data from the previous 72 hours. | See also: Recent months for locations in Queensland
Date/Time
EST
Temp
°C
App
Temp
°C
Dew
Point
Rel
Hum
%
Delta-T
°C
Wind Press
QNH
hPa
Press
MSL
hPa
Rain
since 9 am
mm
Dir
 
Spd
km/h
Gust
km/h
Spd
kts
Gust
kts
23/09:00pm 21.4 - - - - E 11 13 6 7 1019.6 1019.6 -
23/08:30pm 21.6 - - - - E 9 11 5 6 1019.5 1019.5 -
23/08:00pm 21.5 - - - - E 9 13 5 7 1019.3 1019.3 -
23/07:30pm 21.4 - - - - E 9 11 5 6 1018.8 1018.8 -
23/07:00pm 21.4 - - - - ENE 7 11 4 6 1018.3 1018.3 -
23/06:30pm 21.4 - - - - ENE 7 11 4 6 1017.8 1017.8 -
23/06:00pm 21.3 - - - - NE 7 13 4 7 1017.3 1017.3 -
23/05:30pm 21.5 - - - - ENE 7 15 4 8 1017.1 1017.1 -
23/05:00pm 21.5 - - - - ENE 9 20 5 11 1017.0 1017.0 -
23/04:30pm 21.4 - - - - ENE 15 20 8 11 1016.9 1016.9 -
23/04:00pm 21.5 - - - - ENE 13 22 7 12 1016.8 1016.8 -
23/03:30pm 21.3 - - - - ENE 15 20 8 11 1016.7 1016.7 -
23/03:00pm 21.1 - - - - ENE 19 24 10 13 1017.0 1017.0 -
23/02:30pm 20.8 - - - - ENE 20 24 11 13 1017.3 1017.3 -
23/02:00pm 20.9 - - - - ENE 20 24 11 13 1017.7 1017.7 -
23/01:30pm 20.7 - - - - ENE 19 24 10 13 1018.3 1018.3 -
23/01:00pm 20.8 - - - - E 19 22 10 12 1018.6 1018.6 -
23/12:30pm 21.0 - - - - E 13 19 7 10 1019.0 1019.0 -
23/12:00pm 20.9 - - - - E 9 13 5 7 1019.3 1019.3 -
23/11:30am 20.6 - - - - ESE 9 13 5 7 1019.8 1019.8 -
23/11:00am 20.6 - - - - ESE 9 13 5 7 1020.2 1020.2 -
23/10:30am 20.2 - - - - SSE 11 13 6 7 1020.6 1020.6 -
23/10:00am 20.1 - - - - SSE 17 20 9 11 1021.0 1021.0 -
23/09:30am 20.1 - - - - SSE 19 22 10 12 1021.0 1021.0 -
23/09:00am 20.0 - - - - SSE 19 20 10 11 1021.0 1021.0 -
23/08:30am 19.8 - - - - SSE 19 24 10 13 1020.6 1020.6 -
23/08:00am 19.9 - - - - SSE 15 19 8 10 1020.3 1020.3 -
23/07:30am 19.5 - - - - S 13 19 7 10 1019.8 1019.8 -
23/07:00am 19.6 - - - - S 17 20 9 11 1019.5 1019.5 -
23/06:30am 19.4 - - - - SSE 17 20 9 11 1019.1 1019.1 -
23/06:00am 19.4 - - - - SSE 15 19 8 10 1018.9 1018.9 -
23/05:30am 19.3 - - - - S 11 15 6 8 1018.5 1018.5 -
23/05:00am 18.6 - - - - SW 6 13 3 7 1018.1 1018.1 -
23/04:30am 19.2 - - - - S 13 17 7 9 1017.8 1017.8 -
23/04:00am 18.2 - - - - WSW 7 17 4 9 1017.7 1017.7 -
23/03:30am 18.8 - - - - S 13 17 7 9 1017.7 1017.7 -
23/03:00am 19.1 - - - - S 13 17 7 9 1017.8 1017.8 -
23/02:30am 19.2 - - - - S 13 19 7 10 1017.8 1017.8 -
23/02:00am 19.9 - - - - SSE 15 19 8 10 1018.1 1018.1 -
23/01:30am 19.9 - - - - SSE 13 17 7 9 1018.4 1018.4 -
23/01:00am 19.9 - - - - SSE 15 19 8 10 1018.7 1018.7 -
23/12:30am 20.5 - - - - SE 17 26 9 14 1018.9 1018.9 -
23/12:00am 20.8 - - - - ESE 20 26 11 14 1019.1 1019.1 -
 
Date/Time
EST
Temp
°C
App
Temp
°C
Dew
Point
Rel
Hum
%
Delta-T
°C
Wind Press
QNH
hPa
Press
MSL
hPa
Rain
since 9 am
mm
Dir
 
Spd
km/h
Gust
km/h
Spd
kts
Gust
kts
22/11:30pm 21.1 - - - - ESE 26 30 14 16 1019.2 1019.2 -
22/11:00pm 21.1 - - - - ESE 26 30 14 16 1019.3 1019.3 -
22/10:30pm 21.4 - - - - ESE 22 28 12 15 1019.4 1019.4 -
22/10:00pm 21.5 - - - - E 22 28 12 15 1019.1 1019.1 -
22/09:30pm 21.4 - - - - E 22 26 12 14 1019.1 1019.1 -
22/09:00pm 21.4 - - - - E 22 26 12 14 1019.2 1019.2 -
22/08:30pm 21.5 - - - - E 20 24 11 13 1019.2 1019.2 -
22/08:00pm 21.5 - - - - E 22 26 12 14 1018.9 1018.9 -
22/07:30pm 21.5 - - - - E 20 26 11 14 1018.5 1018.5 -
22/07:00pm 21.5 - - - - E 22 26 12 14 1018.3 1018.3 -
22/06:30pm 21.6 - - - - E 22 26 12 14 1018.0 1018.0 -
22/06:00pm 21.4 - - - - E 20 26 11 14 1017.6 1017.6 -
22/05:30pm 21.4 - - - - E 17 22 9 12 1017.3 1017.3 -
22/05:00pm 21.4 - - - - E 17 20 9 11 1017.3 1017.3 -
22/04:30pm 21.3 - - - - E 19 22 10 12 1017.2 1017.2 -
22/04:00pm 21.4 - - - - E 19 22 10 12 1017.1 1017.1 -
22/03:30pm 21.2 - - - - E 24 28 13 15 1017.1 1017.1 -
22/03:00pm 21.2 - - - - E 26 28 14 15 1017.1 1017.1 -
22/02:30pm 21.1 - - - - E 26 30 14 16 1017.3 1017.3 -
22/02:00pm 21.2 - - - - E 26 28 14 15 1017.6 1017.6 -
22/01:30pm 21.2 - - - - E 24 30 13 16 1018.0 1018.0 -
22/01:00pm 21.1 - - - - E 22 26 12 14 1018.3 1018.3 -
22/12:30pm 21.2 - - - - ESE 19 24 10 13 1018.6 1018.6 -
22/12:00pm 21.1 - - - - ESE 19 24 10 13 1019.2 1019.2 -
22/11:30am 21.1 - - - - ESE 20 24 11 13 1019.8 1019.8 -
22/11:00am 20.9 - - - - ESE 19 22 10 12 1020.1 1020.1 -
22/10:30am 20.5 - - - - SE 20 22 11 12 1020.5 1020.5 -
22/10:00am 20.2 - - - - SE 20 26 11 14 1020.6 1020.6 -
22/09:30am 19.4 - - - - SE 20 24 11 13 1020.7 1020.7 -
22/09:00am 19.3 - - - - SSE 22 26 12 14 1020.6 1020.6 -
22/08:30am 19.0 - - - - SSE 19 24 10 13 1020.3 1020.3 -
22/08:00am 18.6 - - - - SSE 20 24 11 13 1019.9 1019.9 -
22/07:30am 18.6 - - - - S 17 22 9 12 1019.7 1019.7 -
22/07:00am 18.4 - - - - S 17 19 9 10 1019.0 1019.0 -
22/06:30am 18.4 - - - - S 17 20 9 11 1018.7 1018.7 -
22/06:00am 18.6 - - - - SSE 19 22 10 12 1018.3 1018.3 -
22/05:30am 18.4 - - - - SSE 19 20 10 11 1017.9 1017.9 -
22/05:00am 18.6 - - - - SSE 19 20 10 11 1017.5 1017.5 -
22/04:30am 18.7 - - - - SSE 19 22 10 12 1017.3 1017.3 -
22/04:00am 18.9 - - - - SSE 20 24 11 13 1017.3 1017.3 -
22/03:30am 19.2 - - - - SSE 22 24 12 13 1017.3 1017.3 -
22/03:00am 19.3 - - - - SSE 19 20 10 11 1017.3 1017.3 -
22/02:30am 19.8 - - - - SE 17 20 9 11 1017.2 1017.2 -
22/02:00am 20.2 - - - - SE 19 22 10 12 1017.3 1017.3 -
22/01:30am 20.4 - - - - SE 17 20 9 11 1017.5 1017.5 -
22/01:00am 20.3 - - - - SE 15 19 8 10 1017.8 1017.8 -
22/12:30am 21.2 - - - - E 19 24 10 13 1018.2 1018.2 -
22/12:00am 21.2 - - - - E 20 24 11 13 1018.4 1018.4 -
 
Date/Time
EST
Temp
°C
App
Temp
°C
Dew
Point
Rel
Hum
%
Delta-T
°C
Wind Press
QNH
hPa
Press
MSL
hPa
Rain
since 9 am
mm
Dir
 
Spd
km/h
Gust
km/h
Spd
kts
Gust
kts
21/11:30pm 21.3 - - - - E 20 24 11 13 1018.5 1018.5 -
21/11:00pm 21.3 - - - - E 22 26 12 14 1018.4 1018.4 -
21/10:30pm 21.3 - - - - E 22 26 12 14 1018.3 1018.3 -
21/10:00pm 21.3 - - - - E 22 24 12 13 1018.2 1018.2 -
21/09:30pm 21.2 - - - - E 24 28 13 15 1018.2 1018.2 -
21/09:00pm 21.3 - - - - E 22 26 12 14 1018.3 1018.3 -
21/08:30pm 21.2 - - - - E 20 24 11 13 1018.4 1018.4 -
21/08:00pm 21.2 - - - - E 20 24 11 13 1018.1 1018.1 -
21/07:30pm 21.0 - - - - E 19 22 10 12 1017.9 1017.9 -
21/07:00pm 21.0 - - - - E 19 22 10 12 1017.6 1017.6 -
21/06:30pm 20.9 - - - - E 17 24 9 13 1017.4 1017.4 -
21/06:00pm 20.9 - - - - E 15 19 8 10 1017.0 1017.0 -
21/05:30pm 21.0 - - - - E 13 17 7 9 1016.8 1016.8 -
21/05:00pm 20.7 - - - - E 15 19 8 10 1016.5 1016.5 -
21/04:30pm 20.8 - - - - E 17 20 9 11 1016.2 1016.2 -
21/04:00pm 20.7 - - - - E 17 22 9 12 1015.8 1015.8 -
21/03:30pm 20.8 - - - - ESE 15 20 8 11 1015.7 1015.7 -
21/03:00pm 20.9 - - - - E 17 22 9 12 1015.7 1015.7 -
21/02:30pm 20.7 - - - - ESE 17 22 9 12 1015.9 1015.9 -
21/02:00pm 20.6 - - - - E 17 20 9 11 1016.2 1016.2 -
21/01:30pm 20.7 - - - - E 17 20 9 11 1016.5 1016.5 -
21/01:00pm 20.8 - - - - E 15 19 8 10 1017.0 1017.0 -
21/12:30pm 20.9 - - - - E 11 17 6 9 1017.3 1017.3 -
21/12:00pm 20.9 - - - - ESE 11 13 6 7 1017.5 1017.5 -
21/11:30am 20.6 - - - - ESE 13 17 7 9 1018.1 1018.1 -
21/11:00am 20.6 - - - - SE 11 15 6 8 1018.6 1018.6 -
21/10:30am 20.3 - - - - SE 13 17 7 9 1018.9 1018.9 -
21/10:00am 19.8 - - - - SE 17 19 9 10 1019.2 1019.2 -
21/09:30am 19.6 - - - - SE 15 17 8 9 1019.2 1019.2 -
21/09:00am 19.3 - - - - WSW 6 7 3 4 1019.1 1019.1 -
21/08:30am 19.3 - - - - WSW 4 7 2 4 1018.9 1018.9 -
21/08:00am 18.6 - - - - W 4 9 2 5 1018.3 1018.3 -
21/07:30am 18.4 - - - - WSW 4 9 2 5 1018.2 1018.2 -
21/07:00am 18.3 - - - - W 7 13 4 7 1018.0 1018.0 -
21/06:30am 18.1 - - - - WSW 4 7 2 4 1017.7 1017.7 -
21/06:00am 18.2 - - - - WSW 7 11 4 6 1017.3 1017.3 -
21/05:30am 18.3 - - - - WSW 6 9 3 5 1017.0 1017.0 -
21/05:00am 19.0 - - - - SSE 15 19 8 10 1016.7 1016.7 -
21/04:30am 19.2 - - - - SSE 17 20 9 11 1016.4 1016.4 -
21/04:00am 19.5 - - - - SE 17 20 9 11 1016.4 1016.4 -
21/03:30am 19.7 - - - - SE 17 20 9 11 1016.8 1016.8 -
21/03:00am 21.1 - - - - E 17 20 9 11 1016.7 1016.7 -
21/02:30am 21.1 - - - - E 19 24 10 13 1017.0 1017.0 -
21/02:00am 21.1 - - - - E 20 24 11 13 1017.2 1017.2 -
21/01:30am 21.1 - - - - E 20 22 11 12 1017.3 1017.3 -
21/01:00am 21.1 - - - - E 20 24 11 13 1017.5 1017.5 -
21/12:30am 21.1 - - - - E 19 22 10 12 1017.7 1017.7 -
21/12:00am 21.1 - - - - E 22 28 12 15 1017.8 1017.8 -
 
Date/Time
EST
Temp
°C
App
Temp
°C
Dew
Point
Rel
Hum
%
Delta-T
°C
Wind Press
QNH
hPa
Press
MSL
hPa
Rain
since 9 am
mm
Dir
 
Spd
km/h
Gust
km/h
Spd
kts
Gust
kts
20/11:30pm 21.2 - - - - E 20 24 11 13 1018.3 1018.3 -
20/11:00pm 21.2 - - - - E 22 26 12 14 1018.4 1018.4 -
20/10:30pm 21.2 - - - - E 22 26 12 14 1018.6 1018.6 -
20/10:00pm 21.3 - - - - E 22 26 12 14 1018.5 1018.5 -
20/09:30pm 21.2 - - - - E 24 28 13 15 1018.5 1018.5 -

Other Formats:

Comma delimited format used in spreadsheet applications
http://www.bom.gov.au/fwo/IDQ60801/IDQ60801.94297.axf

JavaScript Object Notation format (JSON) in row-major order
http://www.bom.gov.au/fwo/IDQ60801/IDQ60801.94297.json